Parksville, Canada
Current Conditions -  °F | °C
As of 7:00 PM on Sunday 23 Nov 2014 (Local Time) from CYCD Reporting Station
Clear Clear  
Wind Chill: 36°   Ceiling: Unl
Heat Index: 41°   Visibility: 20mi
Dew Point: 36°   Wind: 7mph
Humidity: 81%   Direction: 230°SW
Pressure: 30.22"   Gusts: NA
Location:  49.32°N, 124.31°W
Report Text: CYCD 240300Z 23006KT 20SM SKC 05/02 A3022 RMK SLP233
Loading
Personal Weather Stations






























Interactive Weather Map New forecast layout! Learn more

10-Day Weather Forecast

Advertisements
Track Severe Weather on mobile